Time;durP1;ratioP1;P1;durP2;ratioP2;P2;SDS_P1;SDS_P2;PMS_P1;PMS_P2;Temp;Humidity;BMP_temperature;BMP_pressure;BME280_temperature;BME280_humidity;BME280_pressure;Samples;Min_cycle;Max_cycle;Signal;HPM_P1;HPM_P2
2022/06/11 00:00:43;;;;;;;5.17;3.90;;;;;;;18.66;79.13;102070.34;5030225;28;20284;-73
2022/06/11 00:03:08;;;;;;;5.27;3.90;;;;;;;18.64;79.42;102068.59;5030018;28;20337;-73
2022/06/11 00:05:34;;;;;;;5.93;3.60;;;;;;;18.62;79.52;102070.34;5030619;28;20213;-74
2022/06/11 00:07:59;;;;;;;5.77;3.70;;;;;;;18.62;78.95;102060.84;5029913;28;20700;-74
2022/06/11 00:10:25;;;;;;;7.30;3.60;;;;;;;18.62;78.45;102062.56;5030164;28;20328;-74
2022/06/11 00:12:50;;;;;;;4.03;3.60;;;;;;;18.63;78.16;102065.16;5029443;28;20186;-74
2022/06/11 00:15:16;;;;;;;5.03;3.80;;;;;;;18.62;78.56;102066.03;5030348;28;20525;-73
2022/06/11 00:17:42;;;;;;;5.40;3.90;;;;;;;18.62;78.50;102063.44;5030169;28;20655;-74
2022/06/11 00:20:09;;;;;;;4.07;3.67;;;;;;;18.60;79.29;102070.31;5029584;28;20202;-74
2022/06/11 00:22:35;;;;;;;6.00;3.93;;;;;;;18.59;79.30;102068.59;5030203;28;20264;-74
2022/06/11 00:25:01;;;;;;;5.63;3.83;;;;;;;18.58;79.44;102064.28;5029466;28;20213;-74
2022/06/11 00:27:26;;;;;;;5.13;3.40;;;;;;;18.57;79.82;102061.66;5012503;28;20313;-74
2022/06/11 00:29:52;;;;;;;4.30;3.70;;;;;;;18.55;80.12;102061.66;5029573;28;20229;-73
2022/06/11 00:32:17;;;;;;;4.77;3.80;;;;;;;18.56;79.65;102059.94;5030004;28;20186;-74
2022/06/11 00:34:45;;;;;;;5.93;4.17;;;;;;;18.56;79.71;102052.16;5029664;28;20602;-73
2022/06/11 00:37:13;;;;;;;6.47;3.90;;;;;;;18.53;80.26;102055.59;5029501;28;20856;-73
2022/06/11 00:39:40;;;;;;;6.87;4.07;;;;;;;18.51;80.11;102046.91;5029683;28;20280;-73
2022/06/11 00:42:12;;;;;;;5.50;4.00;;;;;;;18.49;80.08;102042.56;5009838;28;20286;-73
2022/06/11 00:44:38;;;;;;;6.53;4.50;;;;;;;18.44;79.96;102049.47;5026034;28;20195;-73
2022/06/11 00:47:20;;;;;;;5.40;3.70;;;;;;;18.42;80.50;102046.84;5029052;28;20187;-73
2022/06/11 00:49:53;;;;;;;5.00;3.50;;;;;;;18.44;80.66;102046.88;5029398;28;20244;-73
2022/06/11 00:52:18;;;;;;;4.40;4.00;;;;;;;18.44;80.95;102034.78;5014704;28;20194;-73
2022/06/11 00:54:48;;;;;;;5.47;3.80;;;;;;;18.41;80.29;102039.94;5029689;28;20293;-74
2022/06/11 00:57:15;;;;;;;6.20;4.07;;;;;;;18.42;79.78;102043.41;5029073;28;20233;-74
2022/06/11 00:59:46;;;;;;;5.67;3.43;;;;;;;18.40;80.01;102043.38;5029332;28;20210;-73
2022/06/11 01:02:12;;;;;;;4.33;3.70;;;;;;;18.40;79.92;102040.78;5029605;28;20198;-74
2022/06/11 01:04:44;;;;;;;4.27;3.60;;;;;;;18.38;80.53;102033.88;5029079;28;20690;-73
2022/06/11 01:07:35;;;;;;;6.83;4.47;;;;;;;18.35;80.35;102037.31;5011840;28;20276;-73
2022/06/11 01:10:37;;;;;;;5.67;4.03;;;;;;;18.33;80.85;102033.81;5004684;28;20222;-74
2022/06/11 01:13:32;;;;;;;5.20;3.80;;;;;;;18.34;80.16;102025.16;5020592;28;20215;-74
2022/06/11 01:16:04;;;;;;;4.80;4.30;;;;;;;18.35;80.77;102031.25;5028823;28;20188;-74
2022/06/11 01:19:04;;;;;;;7.43;4.50;;;;;;;18.36;80.47;102032.97;5029605;28;20563;-74
2022/06/11 01:21:48;;;;;;;5.47;4.07;;;;;;;18.32;80.75;102031.16;5011074;28;20197;-74
2022/06/11 01:24:35;;;;;;;5.37;4.47;;;;;;;18.31;81.38;102043.28;5028843;28;20239;-74
2022/06/11 01:27:39;;;;;;;4.93;4.47;;;;;;;18.27;81.36;102044.13;5027218;28;20205;-73
2022/06/11 01:30:07;;;;;;;8.03;4.47;;;;;;;18.27;79.87;102048.44;4950842;28;20691;-73
2022/06/11 01:32:58;;;;;;;5.17;4.27;;;;;;;18.26;80.05;102047.59;5028326;28;20201;-73
2022/06/11 01:35:29;;;;;;;5.77;4.30;;;;;;;18.29;79.64;102042.38;5029246;28;20201;-73
2022/06/11 01:38:03;;;;;;;6.90;4.50;;;;;;;18.31;79.18;102029.44;5028800;28;20240;-73
2022/06/11 01:40:45;;;;;;;4.97;4.07;;;;;;;18.31;79.29;102034.63;5028197;28;20210;-73
2022/06/11 01:43:32;;;;;;;8.37;4.70;;;;;;;18.28;79.53;102032.88;5010612;28;20543;-73
2022/06/11 01:46:01;;;;;;;5.40;4.37;;;;;;;18.26;80.29;102028.53;5028900;28;20194;-73
2022/06/11 01:48:28;;;;;;;6.30;4.53;;;;;;;18.27;80.38;102022.50;5027868;28;20224;-73
2022/06/11 01:51:30;;;;;;;5.73;4.40;;;;;;;18.25;80.60;102021.63;5028848;28;20257;-73
2022/06/11 01:54:16;;;;;;;7.47;4.30;;;;;;;18.28;80.42;102014.72;5009642;28;20201;-73
2022/06/11 01:57:01;;;;;;;6.83;4.37;;;;;;;18.28;80.68;102013.88;5031199;28;20257;-73
2022/06/11 01:59:50;;;;;;;7.83;4.63;;;;;;;18.28;81.11;102008.69;5014643;28;20594;-73
2022/06/11 02:02:28;;;;;;;5.57;4.20;;;;;;;18.27;81.28;102002.63;5031936;28;20186;-73
2022/06/11 02:05:18;;;;;;;5.23;4.63;;;;;;;18.27;82.12;102007.81;5011018;28;20558;-74
2022/06/11 02:07:44;;;;;;;4.43;3.80;;;;;;;18.20;83.16;101997.38;5032520;28;20210;-73
2022/06/11 02:10:27;;;;;;;7.90;4.73;;;;;;;18.15;83.61;101994.75;5032124;28;20683;-73
2022/06/11 02:12:59;;;;;;;6.93;4.50;;;;;;;18.12;83.53;101991.28;5032170;28;20222;-74
2022/06/11 02:15:31;;;;;;;4.80;3.83;;;;;;;18.16;82.75;101990.44;5032350;28;20301;-74
2022/06/11 02:18:01;;;;;;;7.60;4.07;;;;;;;18.18;82.65;101994.78;5032574;28;20199;-74
2022/06/11 02:20:37;;;;;;;5.67;3.97;;;;;;;18.18;83.21;101989.59;5032205;28;20817;-73
2022/06/11 02:23:16;;;;;;;5.80;3.67;;;;;;;18.18;83.37;101984.41;5031760;28;20690;-74
2022/06/11 02:25:50;;;;;;;5.93;3.80;;;;;;;18.19;83.23;101986.13;5014932;28;20545;-74
2022/06/11 02:28:23;;;;;;;5.63;4.43;;;;;;;18.17;82.38;101992.16;5031741;28;20214;-74
2022/06/11 02:30:51;;;;;;;4.87;4.33;;;;;;;18.17;82.54;101995.66;5032349;28;20602;-73
2022/06/11 02:33:18;;;;;;;7.27;3.67;;;;;;;18.17;82.11;101992.16;5031608;28;20293;-74
2022/06/11 02:35:53;;;;;;;5.17;4.43;;;;;;;18.16;82.25;101996.50;5031990;28;20272;-73
2022/06/11 02:38:22;;;;;;;8.90;4.50;;;;;;;18.15;82.41;101997.34;5031543;28;20203;-74
2022/06/11 02:40:55;;;;;;;6.63;4.60;;;;;;;18.15;82.22;101996.50;5031982;28;20214;-73
2022/06/11 02:43:21;;;;;;;6.60;4.20;;;;;;;18.15;81.90;102001.69;5031585;28;20194;-73
2022/06/11 02:45:47;;;;;;;6.67;4.67;;;;;;;18.16;82.37;101995.63;5031713;28;20248;-73
2022/06/11 02:48:13;;;;;;;8.50;4.80;;;;;;;18.15;82.07;101991.31;5031479;28;20238;-73
2022/06/11 02:50:40;;;;;;;5.50;4.70;;;;;;;18.15;82.40;101997.34;5013143;28;20225;-73
2022/06/11 02:53:07;;;;;;;5.87;5.10;;;;;;;18.11;83.83;101992.13;5031853;28;20699;-73
2022/06/11 02:55:34;;;;;;;6.73;5.30;;;;;;;18.08;84.30;101998.16;5031370;28;20201;-73
2022/06/11 02:58:00;;;;;;;5.80;4.80;;;;;;;18.06;84.78;101991.25;5031579;28;20524;-74
2022/06/11 03:00:33;;;;;;;6.00;4.80;;;;;;;18.06;84.22;101992.09;5031094;28;20206;-74
2022/06/11 03:02:59;;;;;;;6.07;5.30;;;;;;;18.08;84.54;101990.41;5031233;28;20190;-74
2022/06/11 03:05:29;;;;;;;6.33;4.80;;;;;;;18.09;84.22;101983.47;5031495;28;20205;-74
2022/06/11 03:07:56;;;;;;;5.63;5.00;;;;;;;18.04;84.76;101982.56;5031162;28;20680;-74
2022/06/11 03:10:24;;;;;;;7.03;5.67;;;;;;;18.06;84.65;101984.31;5031366;28;20226;-74
2022/06/11 03:12:50;;;;;;;5.90;5.30;;;;;;;18.07;84.53;101991.25;5030881;28;20838;-73
2022/06/11 03:15:18;;;;;;;5.70;5.10;;;;;;;18.07;84.58;101992.97;5031175;28;20668;-74
2022/06/11 03:17:45;;;;;;;6.37;5.20;;;;;;;18.09;84.54;101991.25;5030894;28;20236;-74
2022/06/11 03:20:13;;;;;;;6.10;4.73;;;;;;;18.08;84.98;101989.50;5031000;28;20202;-74
2022/06/11 03:22:39;;;;;;;8.70;5.40;;;;;;;18.08;84.51;101998.16;5030635;28;20183;-73
2022/06/11 03:25:05;;;;;;;6.77;5.37;;;;;;;18.07;84.58;101993.84;5031036;28;20195;-73
2022/06/11 03:27:30;;;;;;;6.10;5.50;;;;;;;18.08;84.09;101992.09;5031069;28;20714;-73
2022/06/11 03:29:56;;;;;;;8.47;5.00;;;;;;;18.09;83.96;101994.72;5030335;28;20210;-73
2022/06/11 03:32:21;;;;;;;6.27;5.37;;;;;;;18.09;84.25;101992.13;5031126;28;20193;-73
2022/06/11 03:34:48;;;;;;;6.17;5.07;;;;;;;18.12;84.32;101999.06;5030329;28;20195;-73
2022/06/11 03:37:13;;;;;;;6.57;5.00;;;;;;;18.11;84.66;101997.31;5013234;28;20190;-73
2022/06/11 03:39:40;;;;;;;6.97;6.00;;;;;;;18.08;85.17;102002.47;5029629;28;20208;-74
2022/06/11 03:42:06;;;;;;;8.23;5.60;;;;;;;18.09;85.04;101999.91;4993674;28;20189;-73
2022/06/11 03:44:32;;;;;;;6.00;5.07;;;;;;;18.09;84.55;102001.63;5008292;28;20193;-73
2022/06/11 03:46:57;;;;;;;6.37;5.67;;;;;;;18.07;85.57;102006.81;5012533;28;20202;-73
2022/06/11 03:49:23;;;;;;;5.93;4.80;;;;;;;18.07;85.54;102008.53;5030307;28;20237;-74
2022/06/11 03:51:49;;;;;;;6.53;4.83;;;;;;;18.11;85.15;102000.81;5030056;28;20217;-74
2022/06/11 03:54:16;;;;;;;5.33;4.77;;;;;;;18.09;85.82;101999.91;5012448;28;20229;-74
2022/06/11 03:56:43;;;;;;;7.33;5.20;;;;;;;18.09;85.78;101993.84;5030195;28;20201;-74
2022/06/11 03:59:10;;;;;;;6.77;5.00;;;;;;;18.13;85.16;101993.88;5030119;28;20240;-74
2022/06/11 04:01:36;;;;;;;6.27;5.20;;;;;;;18.15;84.90;101991.31;5030173;28;20218;-74
2022/06/11 04:04:05;;;;;;;6.27;5.30;;;;;;;18.17;84.93;101992.16;5012959;28;20198;-74
2022/06/11 04:06:34;;;;;;;8.20;5.67;;;;;;;18.19;84.70;101995.66;5024867;28;20183;-74
2022/06/11 04:09:02;;;;;;;6.73;4.83;;;;;;;18.19;84.21;101999.09;5030120;28;20222;-76
2022/06/11 04:11:27;;;;;;;8.37;4.93;;;;;;;18.21;84.17;102004.31;5030471;28;20655;-74
2022/06/11 04:13:54;;;;;;;6.53;5.73;;;;;;;18.23;84.32;102007.78;5029911;28;20201;-74
2022/06/11 04:16:28;;;;;;;10.27;6.03;;;;;;;18.22;85.18;102004.31;5030429;28;20276;-73
2022/06/11 04:18:57;;;;;;;8.17;5.60;;;;;;;18.22;85.45;102006.91;5029302;28;20158;-74
2022/06/11 04:21:23;;;;;;;8.03;5.27;;;;;;;18.25;85.58;102013.84;5030143;28;20197;-74
2022/06/11 04:23:52;;;;;;;6.23;5.43;;;;;;;18.29;84.97;102013.00;5029679;28;20671;-74
2022/06/11 04:26:22;;;;;;;6.87;5.10;;;;;;;18.31;84.62;102003.50;5030233;28;20268;-73
2022/06/11 04:28:48;;;;;;;7.43;5.10;;;;;;;18.34;83.79;102011.34;5030046;28;20214;-74
2022/06/11 04:31:15;;;;;;;6.97;5.10;;;;;;;18.36;84.09;102010.50;5029726;28;20229;-74
2022/06/11 04:33:43;;;;;;;6.93;5.77;;;;;;;18.38;84.64;102016.56;5029753;28;20240;-74
2022/06/11 04:36:11;;;;;;;7.53;5.80;;;;;;;18.42;84.22;102009.69;5029574;28;20182;-73
2022/06/11 04:38:38;;;;;;;7.70;5.67;;;;;;;18.46;83.44;102014.88;5029880;28;20183;-74
2022/06/11 04:41:05;;;;;;;7.13;5.60;;;;;;;18.51;83.35;102008.00;5011909;28;20173;-74
2022/06/11 04:43:30;;;;;;;7.43;5.87;;;;;;;18.54;83.60;102008.03;5029739;28;20197;-74
2022/06/11 04:45:55;;;;;;;6.77;5.97;;;;;;;18.57;83.51;102012.34;5029835;28;20178;-73
2022/06/11 04:48:21;;;;;;;6.97;6.23;;;;;;;18.61;83.62;102004.59;5011172;28;20691;-74
2022/06/11 04:50:47;;;;;;;9.63;6.40;;;;;;;18.65;83.44;102008.09;5029608;28;20210;-74
2022/06/11 04:53:12;;;;;;;9.27;5.90;;;;;;;18.66;83.36;102015.84;5029101;28;20186;-74
2022/06/11 04:55:38;;;;;;;6.63;6.03;;;;;;;18.64;83.53;102020.19;5029800;28;20638;-74
2022/06/11 04:58:03;;;;;;;5.93;5.33;;;;;;;18.70;83.65;102017.59;5029107;28;20293;-73
2022/06/11 05:00:31;;;;;;;6.37;5.67;;;;;;;18.68;83.63;102016.75;5029600;28;20203;-74
2022/06/11 05:02:57;;;;;;;6.00;5.37;;;;;;;18.72;82.85;102010.72;5029079;28;20194;-74
2022/06/11 05:05:24;;;;;;;7.67;6.03;;;;;;;18.81;82.90;102017.66;5029441;28;20293;-74
2022/06/11 05:07:50;;;;;;;9.00;5.50;;;;;;;18.94;82.09;102014.28;5029511;28;20308;-74
2022/06/11 05:10:19;;;;;;;6.07;4.80;;;;;;;19.02;81.27;102013.44;5029003;28;20216;-73
2022/06/11 05:12:44;;;;;;;6.83;5.10;;;;;;;19.18;81.07;102009.16;5029567;28;20197;-74
2022/06/11 05:15:10;;;;;;;5.87;5.03;;;;;;;19.29;80.18;102008.38;5028857;28;20190;-74
2022/06/11 05:17:37;;;;;;;6.80;5.00;;;;;;;19.41;80.30;102015.31;5029345;28;20182;-73
2022/06/11 05:20:04;;;;;;;9.90;5.03;;;;;;;19.49;79.79;102006.66;5029194;28;20206;-74
2022/06/11 05:22:29;;;;;;;5.63;5.00;;;;;;;19.48;79.30;102009.28;5011848;28;20225;-74
2022/06/11 05:24:55;;;;;;;5.87;4.47;;;;;;;19.63;79.14;102012.75;5029312;28;20721;-74
2022/06/11 05:27:23;;;;;;;4.80;4.27;;;;;;;19.62;78.99;102018.81;5029157;28;20197;-74
2022/06/11 05:29:52;;;;;;;6.83;4.37;;;;;;;19.72;79.01;102019.72;5029599;28;20209;-74
2022/06/11 05:32:21;;;;;;;5.50;4.83;;;;;;;19.87;77.46;102018.00;5032136;28;20190;-74
2022/06/11 05:34:49;;;;;;;4.63;4.20;;;;;;;19.92;77.02;102011.06;5033287;28;20197;-74
2022/06/11 05:37:15;;;;;;;6.77;4.43;;;;;;;20.06;77.13;102011.03;5032937;28;20185;-73
2022/06/11 05:39:43;;;;;;;5.87;4.50;;;;;;;20.12;76.75;102005.84;5033307;28;20238;-74
2022/06/11 05:42:09;;;;;;;6.07;4.53;;;;;;;20.20;75.92;102014.53;5032167;28;20277;-74
2022/06/11 05:44:35;;;;;;;5.27;4.03;;;;;;;20.27;76.20;102013.66;5015238;28;20190;-74
2022/06/11 05:47:01;;;;;;;6.37;4.20;;;;;;;20.46;75.97;102005.78;5033085;28;20194;-74
2022/06/11 05:49:32;;;;;;;7.10;4.70;;;;;;;20.68;74.75;102017.03;5032530;28;20214;-74
2022/06/11 05:52:01;;;;;;;6.43;4.67;;;;;;;20.62;73.36;102010.13;5033288;28;20276;-74
2022/06/11 05:54:31;;;;;;;7.43;4.50;;;;;;;20.84;73.27;102010.91;5032572;28;20187;-73
2022/06/11 05:56:58;;;;;;;7.73;4.83;;;;;;;20.87;72.63;102024.78;5033224;28;20242;-73
2022/06/11 05:59:29;;;;;;;8.27;5.13;;;;;;;20.66;72.95;102021.38;5032360;28;20214;-74
2022/06/11 06:01:56;;;;;;;8.63;5.57;;;;;;;20.65;73.68;102027.47;5032624;28;20281;-73
2022/06/11 06:04:22;;;;;;;7.83;5.70;;;;;;;20.75;72.86;102023.94;5032242;28;20282;-74
2022/06/11 06:06:47;;;;;;;7.93;5.33;;;;;;;20.95;72.20;102022.16;5032999;28;20822;-73
2022/06/11 06:09:13;;;;;;;9.93;5.47;;;;;;;21.02;71.66;102018.69;5014977;28;20688;-73
2022/06/11 06:11:39;;;;;;;7.83;4.90;;;;;;;21.23;71.44;102022.03;5032244;28;20197;-73
2022/06/11 06:14:04;;;;;;;8.70;5.47;;;;;;;21.17;70.91;102021.19;5032595;28;20193;-73
2022/06/11 06:16:30;;;;;;;8.17;5.10;;;;;;;21.54;70.21;102035.75;5032192;28;20664;-74
2022/06/11 06:18:58;;;;;;;9.37;5.80;;;;;;;21.73;69.30;102029.56;5032536;28;20177;-74
2022/06/11 06:21:26;;;;;;;9.20;5.63;;;;;;;21.74;68.77;102020.91;5032132;28;20265;-73
2022/06/11 06:23:52;;;;;;;9.97;5.93;;;;;;;21.67;70.30;102027.88;5032323;28;20201;-73
2022/06/11 06:26:18;;;;;;;9.40;5.87;;;;;;;21.67;69.56;102030.47;5032705;28;20175;-74
2022/06/11 06:28:44;;;;;;;12.83;6.27;;;;;;;21.61;69.38;102025.28;5031825;28;20253;-73
2022/06/11 06:31:12;;;;;;;8.63;5.90;;;;;;;21.57;70.47;102028.81;5032463;28;20272;-73
2022/06/11 06:33:37;;;;;;;10.47;6.53;;;;;;;21.38;70.40;102024.56;5031682;28;20233;-73
2022/06/11 06:36:05;;;;;;;9.43;5.13;;;;;;;21.48;70.25;102031.47;5032489;28;20214;-74
2022/06/11 06:38:31;;;;;;;8.70;5.87;;;;;;;21.41;70.42;102034.09;5031827;28;20186;-74
2022/06/11 06:40:56;;;;;;;9.37;6.00;;;;;;;21.38;70.57;102039.34;5032124;28;20262;-73
2022/06/11 06:43:22;;;;;;;9.67;5.67;;;;;;;21.67;69.70;102040.03;5031295;28;20652;-74
2022/06/11 06:45:48;;;;;;;12.17;6.63;;;;;;;22.26;68.12;102037.84;5014920;28;20186;-74
2022/06/11 06:48:13;;;;;;;9.53;6.43;;;;;;;22.25;68.48;102042.19;5032544;28;20252;-73
2022/06/11 06:50:39;;;;;;;9.90;5.70;;;;;;;22.32;68.32;102042.16;5031433;28;20209;-73
2022/06/11 06:53:05;;;;;;;8.13;5.70;;;;;;;22.26;67.78;102040.47;5032473;28;20183;-74
2022/06/11 06:55:30;;;;;;;8.63;6.10;;;;;;;22.77;67.11;102031.25;5031644;28;20554;-73
2022/06/11 06:57:56;;;;;;;8.47;5.87;;;;;;;23.14;65.98;102027.28;5032270;28;20181;-73
2022/06/11 07:00:22;;;;;;;7.27;5.47;;;;;;;22.58;66.58;102037.56;5031585;28;20823;-73
2022/06/11 07:02:48;;;;;;;9.97;5.33;;;;;;;22.64;66.22;102032.28;5032618;28;20571;-73
2022/06/11 07:05:15;;;;;;;7.23;4.77;;;;;;;23.02;63.88;102030.06;5013887;28;20186;-73
2022/06/11 07:07:41;;;;;;;9.07;4.60;;;;;;;22.53;64.60;102034.13;5031328;28;20303;-73
2022/06/11 07:10:09;;;;;;;6.10;3.90;;;;;;;23.12;62.66;102036.91;5031628;28;20257;-73
2022/06/11 07:12:34;;;;;;;6.23;2.87;;;;;;;23.79;59.65;102029.84;5030929;28;20204;-73
2022/06/11 07:15:00;;;;;;;3.83;2.30;;;;;;;23.77;59.65;102034.25;5031481;28;20183;-73
2022/06/11 07:17:34;;;;;;;4.23;2.47;;;;;;;23.59;59.44;102031.91;5030909;28;20183;-74
2022/06/11 07:20:04;;;;;;;5.25;2.42;;;;;;;24.01;57.80;102036.50;5031575;28;20564;-73
2022/06/11 07:22:36;;;;;;;5.43;2.60;;;;;;;23.53;58.93;102025.03;5031008;28;20663;-73
2022/06/11 07:25:04;;;;;;;4.53;2.63;;;;;;;24.11;57.35;102025.88;5031298;28;20202;-73
2022/06/11 07:27:36;;;;;;;3.70;2.57;;;;;;;23.97;57.26;102027.84;5031311;28;20567;-73
2022/06/11 07:30:10;;;;;;;5.22;2.70;;;;;;;23.76;58.34;102032.53;5030777;28;20264;-74
2022/06/11 07:32:37;;;;;;;6.07;2.70;;;;;;;23.48;58.92;102026.00;5028272;28;20201;-74
2022/06/11 07:35:05;;;;;;;5.60;3.13;;;;;;;23.14;59.76;102028.16;5029095;28;20225;-73
2022/06/11 07:37:33;;;;;;;5.30;3.67;;;;;;;22.76;60.58;102032.13;5012960;28;20189;-74
2022/06/11 07:39:59;;;;;;;5.90;4.17;;;;;;;22.53;61.35;102035.00;5033159;28;20206;-73
2022/06/11 07:42:24;;;;;;;4.17;3.10;;;;;;;22.62;61.99;102032.28;5030938;28;20600;-73
2022/06/11 07:44:50;;;;;;;6.27;4.77;;;;;;;22.61;60.89;102030.53;5030277;28;20187;-73
2022/06/11 07:47:53;;;;;;;6.40;4.00;;;;;;;23.58;60.29;102022.34;5029868;28;20241;-73
2022/06/11 07:50:02;;;;;;;6.97;3.90;;;;;;;23.88;58.97;102027.97;5028004;28;20248;-74
2022/06/11 07:52:27;;;;;;;8.17;4.73;;;;;;;23.49;59.32;102033.81;5030272;28;20810;-73
2022/06/11 07:54:53;;;;;;;6.10;4.77;;;;;;;23.93;57.61;102026.16;5029878;28;20189;-74
2022/06/11 07:57:18;;;;;;;8.00;3.83;;;;;;;24.17;57.01;102028.38;5012516;28;20213;-74
2022/06/11 07:59:44;;;;;;;6.50;4.63;;;;;;;24.04;56.00;102041.72;5030622;28;20195;-74
2022/06/11 08:02:09;;;;;;;4.32;3.92;;;;;;;24.00;57.42;102034.78;5030411;28;20194;-73
2022/06/11 08:04:35;;;;;;;5.70;4.13;;;;;;;23.46;59.01;102035.59;5030459;28;20186;-74
2022/06/11 08:07:00;;;;;;;8.50;4.23;;;;;;;23.88;58.89;102034.94;5029342;28;20285;-73
2022/06/11 08:09:25;;;;;;;8.23;4.03;;;;;;;24.10;57.80;102037.25;5030308;28;20237;-74
2022/06/11 08:11:51;;;;;;;7.97;4.53;;;;;;;24.33;57.64;102031.59;5029959;28;20194;-73
2022/06/11 08:14:16;;;;;;;5.35;3.72;;;;;;;24.06;57.99;102037.31;5011892;28;20198;-73
2022/06/11 08:16:42;;;;;;;7.90;4.83;;;;;;;23.84;58.84;102038.53;5025570;28;20304;-73
2022/06/11 08:19:07;;;;;;;7.70;4.40;;;;;;;23.94;58.58;102040.13;5029715;28;20205;-74
2022/06/11 08:21:33;;;;;;;9.43;5.30;;;;;;;23.18;59.11;102039.44;5030186;28;20668;-73
2022/06/11 08:23:59;;;;;;;5.53;4.50;;;;;;;23.66;59.21;102042.25;5029466;28;20192;-73
2022/06/11 08:26:24;;;;;;;5.50;4.70;;;;;;;24.16;58.04;102033.63;5030229;28;20186;-73
2022/06/11 08:28:49;;;;;;;6.17;4.73;;;;;;;24.03;57.94;102038.22;5029913;28;20206;-73
2022/06/11 08:31:15;;;;;;;7.57;4.93;;;;;;;23.60;58.62;102041.50;5029747;28;20220;-74
2022/06/11 08:33:41;;;;;;;9.57;5.63;;;;;;;24.02;57.01;102033.88;5011969;28;20268;-73
2022/06/11 08:36:06;;;;;;;9.47;5.00;;;;;;;24.04;56.88;102033.84;5029621;28;20727;-73
2022/06/11 08:38:32;;;;;;;7.15;4.85;;;;;;;24.49;56.45;102033.06;5029967;28;20660;-74
2022/06/11 08:40:57;;;;;;;5.07;4.50;;;;;;;24.18;51.28;102037.09;5029444;28;20234;-73
2022/06/11 08:43:25;;;;;;;8.00;6.30;;;;;;;23.97;54.27;102029.59;5029894;28;20679;-73
2022/06/11 08:46:09;;;;;;;8.43;5.90;;;;;;;24.05;53.97;102030.34;5028423;28;20701;-74
2022/06/11 08:48:44;;;;;;;6.43;5.27;;;;;;;23.64;53.75;102044.06;5029593;28;20194;-73
2022/06/11 08:51:28;;;;;;;6.80;4.50;;;;;;;24.31;51.77;102039.47;5029825;28;20261;-73
2022/06/11 08:53:58;;;;;;;6.18;4.72;;;;;;;24.31;50.72;102033.38;5029492;28;20213;-74
2022/06/11 08:56:46;;;;;;;6.90;5.33;;;;;;;24.50;49.80;102033.00;5036801;28;20200;-74
2022/06/11 08:59:47;;;;;;;4.70;4.18;;;;;;;24.49;50.29;102030.44;5044790;28;20243;-74
2022/06/11 09:02:12;;;;;;;7.07;4.77;;;;;;;24.59;50.77;102029.38;5015304;28;20639;-73
2022/06/11 09:04:58;;;;;;;9.07;4.90;;;;;;;24.14;50.17;102031.06;5048740;28;20194;-74
2022/06/11 09:07:54;;;;;;;6.77;5.40;;;;;;;24.97;50.34;102024.25;5008168;28;20201;-73
2022/06/11 09:10:48;;;;;;;8.57;5.60;;;;;;;24.72;50.79;102023.03;5032342;28;20213;-73
2022/06/11 09:13:26;;;;;;;5.45;4.55;;;;;;;24.53;49.20;102032.06;5011912;28;20197;-73
2022/06/11 09:16:04;;;;;;;5.97;4.40;;;;;;;24.67;50.24;102024.88;5029081;28;20247;-73
2022/06/11 09:18:47;;;;;;;4.97;4.45;;;;;;;24.48;50.34;102018.19;5029511;28;20265;-74
2022/06/11 09:21:42;;;;;;;7.25;3.58;;;;;;;24.63;50.40;102025.84;5029114;28;20183;-73
2022/06/11 09:24:24;;;;;;;4.68;2.83;;;;;;;25.22;45.24;102025.44;5020375;28;20209;-73
2022/06/11 09:27:09;;;;;;;3.17;2.10;;;;;;;25.69;45.02;102018.25;5011160;28;20186;-74
2022/06/11 09:29:59;;;;;;;4.25;2.47;;;;;;;25.62;45.25;102034.19;5010603;28;20222;-73
2022/06/11 09:32:30;;;;;;;4.70;2.47;;;;;;;24.97;44.72;102027.75;5029278;28;20566;-73
2022/06/11 09:35:13;;;;;;;4.35;2.10;;;;;;;25.33;45.23;102026.13;5041767;28;20552;-73
2022/06/11 09:37:57;;;;;;;2.22;1.80;;;;;;;25.76;44.67;102025.09;5030212;28;20197;-73
2022/06/11 09:40:41;;;;;;;2.78;1.88;;;;;;;26.15;42.88;102036.41;5008929;28;20203;-73
2022/06/11 09:43:18;;;;;;;3.10;2.00;;;;;;;26.05;42.14;102035.78;5008473;28;20178;-74
2022/06/11 09:45:50;;;;;;;4.13;2.10;;;;;;;25.49;41.94;102044.09;5009012;28;20175;-73
2022/06/11 09:48:35;;;;;;;4.72;1.77;;;;;;;25.38;43.82;102040.88;5008490;28;20203;-73
2022/06/11 09:51:18;;;;;;;4.20;1.58;;;;;;;26.31;41.11;102038.59;4991355;28;20864;-74
2022/06/11 09:53:52;;;;;;;3.05;1.55;;;;;;;25.53;39.58;102042.28;5008509;28;20183;-72
2022/06/11 09:56:38;;;;;;;3.72;2.00;;;;;;;26.01;38.61;102044.63;5009032;28;20185;-73
2022/06/11 09:59:07;;;;;;;3.15;1.65;;;;;;;25.55;39.06;102048.38;5008392;28;20213;-73
2022/06/11 10:01:45;;;;;;;3.78;1.45;;;;;;;26.33;39.24;102049.94;5009149;28;20282;-74
2022/06/11 10:04:15;;;;;;;2.92;1.60;;;;;;;26.69;39.00;102042.84;5008810;28;20661;-73
2022/06/11 10:06:52;;;;;;;3.85;1.70;;;;;;;26.40;38.81;102054.13;5009346;28;20183;-73
2022/06/11 10:09:21;;;;;;;3.08;1.60;;;;;;;26.54;38.97;102046.75;5009032;28;20219;-73
2022/06/11 10:12:14;;;;;;;3.58;1.75;;;;;;;26.12;38.60;102049.63;4991273;28;20198;-73
2022/06/11 10:15:18;;;;;;;2.85;1.85;;;;;;;25.56;40.06;102050.94;5009162;28;20428;-73
2022/06/11 10:17:50;;;;;;;5.20;1.55;;;;;;;26.55;40.69;102052.84;4993764;28;20597;-73
2022/06/11 10:20:30;;;;;;;2.35;1.48;;;;;;;26.53;38.72;102047.63;5012871;28;20228;-74
2022/06/11 10:23:18;;;;;;;3.55;1.33;;;;;;;26.75;37.88;102048.81;5012584;28;20191;-73
2022/06/11 10:26:03;;;;;;;5.10;2.35;;;;;;;26.75;38.67;102050.59;4975238;28;20203;-74
2022/06/11 10:28:37;;;;;;;4.32;1.63;;;;;;;26.74;38.08;102054.09;5022559;28;20205;-74
2022/06/11 10:31:22;;;;;;;3.42;1.30;;;;;;;27.17;37.96;102055.47;4995174;28;20238;-74
2022/06/11 10:34:23;;;;;;;3.10;1.60;;;;;;;26.81;38.55;102061.81;5003871;28;20647;-73
2022/06/11 10:37:07;;;;;;;4.55;1.65;;;;;;;26.87;38.85;102060.75;5016339;28;20193;-73
2022/06/11 10:39:35;;;;;;;4.68;1.83;;;;;;;27.05;36.42;102054.97;5038198;28;20278;-73
2022/06/11 10:42:08;;;;;;;3.42;1.90;;;;;;;26.89;37.29;102054.53;5052116;28;20197;-73
2022/06/11 10:44:35;;;;;;;2.67;1.42;;;;;;;27.21;37.92;102048.41;5051473;28;20166;-74
2022/06/11 10:47:02;;;;;;;5.15;1.63;;;;;;;27.61;39.51;102048.88;5051931;28;20640;-74
2022/06/11 10:49:28;;;;;;;5.32;1.70;;;;;;;27.57;36.32;102045.50;5032587;28;20229;-74
2022/06/11 10:52:21;;;;;;;3.53;1.63;;;;;;;27.28;37.00;102053.44;5031652;28;20190;-74
2022/06/11 10:54:47;;;;;;;4.95;1.80;;;;;;;27.63;37.57;102057.59;5027186;28;20201;-74
2022/06/11 10:57:33;;;;;;;5.38;1.80;;;;;;;27.29;36.15;102047.25;5031960;28;20186;-73
2022/06/11 11:00:06;;;;;;;3.65;1.85;;;;;;;27.34;36.11;102057.63;5030548;28;20221;-73
2022/06/11 11:02:44;;;;;;;5.80;1.80;;;;;;;27.74;36.52;102064.25;5031327;28;20533;-73
2022/06/11 11:05:13;;;;;;;5.20;1.67;;;;;;;27.52;37.23;102060.56;5031596;28;20179;-74
2022/06/11 11:07:54;;;;;;;3.58;1.90;;;;;;;26.08;35.62;102064.59;5032442;28;20255;-73
2022/06/11 11:10:20;;;;;;;4.55;1.70;;;;;;;26.04;36.82;102062.06;5051399;28;20709;-73
2022/06/11 11:12:46;;;;;;;3.63;1.80;;;;;;;27.29;36.93;102060.41;5051064;28;20166;-73
2022/06/11 11:15:18;;;;;;;4.72;1.80;;;;;;;27.36;37.31;102059.28;5034334;28;20640;-74
2022/06/11 11:17:48;;;;;;;5.60;2.58;;;;;;;27.82;37.43;102066.69;5026445;28;20232;-74
2022/06/11 11:20:29;;;;;;;4.28;2.13;;;;;;;27.94;36.06;102069.78;5031254;28;20216;-74
2022/06/11 11:23:05;;;;;;;7.55;3.50;;;;;;;27.91;37.88;102075.13;5013640;28;20612;-74
2022/06/11 11:25:36;;;;;;;6.68;2.80;;;;;;;28.06;36.27;102068.50;5031041;28;20218;-74
2022/06/11 11:28:04;;;;;;;5.95;3.38;;;;;;;28.21;36.77;102068.00;5031299;28;20225;-73
2022/06/11 11:30:39;;;;;;;4.45;2.20;;;;;;;28.36;36.27;102070.13;5030716;28;20194;-73
2022/06/11 11:33:14;;;;;;;5.35;2.05;;;;;;;28.50;35.14;102078.47;5031244;28;20232;-74
2022/06/11 11:35:40;;;;;;;4.78;2.10;;;;;;;28.65;34.31;102073.47;5030659;28;20192;-74
2022/06/11 11:38:23;;;;;;;5.25;2.47;;;;;;;28.40;33.69;102074.38;5031355;28;20657;-74
2022/06/11 11:41:01;;;;;;;5.18;2.17;;;;;;;28.50;34.69;102076.66;5030621;28;20209;-74
2022/06/11 11:43:57;;;;;;;5.75;2.38;;;;;;;28.39;34.68;102083.19;5013838;28;20193;-74